Time;durP1;ratioP1;P1;durP2;ratioP2;P2;SDS_P1;SDS_P2;PMS_P1;PMS_P2;Temp;Humidity;BMP_temperature;BMP_pressure;BME280_temperature;BME280_humidity;BME280_pressure;Samples;Min_cycle;Max_cycle;Signal;HPM_P1;HPM_P2
2023/04/30 00:00:07;;;;;;;14.60;4.82;;;6.80;99.90;;;;;;5061851;28;20021;-71
2023/04/30 00:02:33;;;;;;;13.52;4.70;;;6.80;99.90;;;;;;5060611;28;20088;-72
2023/04/30 00:04:58;;;;;;;17.40;5.25;;;6.80;99.90;;;;;;5060211;28;20083;-73
2023/04/30 00:07:24;;;;;;;20.35;5.32;;;6.70;99.90;;;;;;5059133;28;20493;-70
2023/04/30 00:09:50;;;;;;;17.50;5.40;;;6.70;99.90;;;;;;5061246;28;20044;-73
2023/04/30 00:12:15;;;;;;;12.30;5.13;;;6.70;99.90;;;;;;5061506;28;20077;-70
2023/04/30 00:14:41;;;;;;;12.57;5.05;;;6.60;99.90;;;;;;5061574;28;20044;-71
2023/04/30 00:17:06;;;;;;;24.73;5.70;;;6.60;99.90;;;;;;5060937;28;20067;-71
2023/04/30 00:19:32;;;;;;;14.63;4.85;;;6.60;99.90;;;;;;5060598;28;20029;-71
2023/04/30 00:22:00;;;;;;;12.20;4.35;;;6.60;99.90;;;;;;5059797;28;20031;-70
2023/04/30 00:24:26;;;;;;;19.85;5.22;;;6.60;99.90;;;;;;5061091;28;20017;-69
2023/04/30 00:26:52;;;;;;;17.65;5.25;;;6.60;99.90;;;;;;5060571;28;20085;-70
2023/04/30 00:29:17;;;;;;;12.60;4.50;;;6.50;99.90;;;;;;5061590;28;20017;-71
2023/04/30 00:31:43;;;;;;;13.48;5.47;;;6.60;99.90;;;;;;5064093;28;20029;-71
2023/04/30 00:34:09;;;;;;;13.52;4.93;;;6.50;99.90;;;;;;5063736;28;20052;-71
2023/04/30 00:36:34;;;;;;;15.57;4.60;;;6.50;99.90;;;;;;5065179;28;20025;-71
2023/04/30 00:39:00;;;;;;;18.75;5.07;;;6.50;99.90;;;;;;5063140;28;20025;-71
2023/04/30 00:41:26;;;;;;;15.15;4.90;;;6.50;99.90;;;;;;5065191;28;20032;-70
2023/04/30 00:43:52;;;;;;;16.10;4.70;;;6.50;99.90;;;;;;5064110;28;20028;-72
2023/04/30 00:46:17;;;;;;;10.93;4.57;;;6.50;99.90;;;;;;5064801;28;20049;-71
2023/04/30 00:48:43;;;;;;;12.75;5.30;;;6.40;99.90;;;;;;5063704;28;20029;-71
2023/04/30 00:51:09;;;;;;;15.20;5.10;;;6.40;99.90;;;;;;5063800;28;20029;-70
2023/04/30 00:53:36;;;;;;;14.93;5.53;;;6.30;99.90;;;;;;5063296;28;20031;-71
2023/04/30 00:56:02;;;;;;;17.65;5.68;;;6.20;99.90;;;;;;5064832;28;20052;-71
2023/04/30 00:58:28;;;;;;;15.38;5.20;;;6.20;99.90;;;;;;5064375;28;20040;-71
2023/04/30 01:00:54;;;;;;;14.13;5.25;;;6.10;99.90;;;;;;5064499;28;20029;-73
2023/04/30 01:03:21;;;;;;;18.58;6.15;;;6.10;99.90;;;;;;5063699;28;20028;-71
2023/04/30 01:05:47;;;;;;;21.20;5.40;;;6.10;99.90;;;;;;5063897;28;20406;-71
2023/04/30 01:08:13;;;;;;;10.98;5.30;;;6.00;99.90;;;;;;5062792;28;20021;-71
2023/04/30 01:10:52;;;;;;;15.57;5.63;;;6.10;99.90;;;;;;5063207;28;20056;-70
2023/04/30 01:13:29;;;;;;;18.17;5.10;;;6.00;99.90;;;;;;5064519;28;20039;-71
2023/04/30 01:16:22;;;;;;;14.32;5.80;;;5.90;99.90;;;;;;5064530;28;20391;-72
2023/04/30 01:19:03;;;;;;;21.40;5.93;;;5.90;99.90;;;;;;5064609;28;20068;-71
2023/04/30 01:21:32;;;;;;;17.83;5.43;;;5.80;99.90;;;;;;5062566;28;20025;-72
2023/04/30 01:24:29;;;;;;;18.48;5.82;;;5.80;99.90;;;;;;5062884;28;20044;-72
2023/04/30 01:27:22;;;;;;;15.70;5.30;;;5.80;99.90;;;;;;5044879;28;20037;-72
2023/04/30 01:29:49;;;;;;;13.50;5.03;;;5.70;99.90;;;;;;5064773;28;20163;-72
2023/04/30 01:32:14;;;;;;;16.73;5.60;;;5.70;99.90;;;;;;5064852;28;20036;-72
2023/04/30 01:34:40;;;;;;;15.93;5.47;;;5.60;99.90;;;;;;5064549;28;20021;-71
2023/04/30 01:37:36;;;;;;;12.23;5.25;;;5.70;99.90;;;;;;5064683;28;20049;-71
2023/04/30 01:40:22;;;;;;;20.23;5.07;;;5.80;99.90;;;;;;5064136;28;20625;-71
2023/04/30 01:43:15;;;;;;;13.57;5.47;;;5.60;99.90;;;;;;5064494;28;20032;-71
2023/04/30 01:46:07;;;;;;;19.60;5.55;;;5.60;99.90;;;;;;5064078;28;20907;-71
2023/04/30 01:48:51;;;;;;;13.55;5.18;;;5.70;99.90;;;;;;5062469;28;20112;-72
2023/04/30 01:51:34;;;;;;;10.23;4.88;;;5.70;99.90;;;;;;5064132;28;20029;-70
2023/04/30 01:54:10;;;;;;;19.25;4.93;;;5.70;99.90;;;;;;5064072;28;20045;-71
2023/04/30 01:56:42;;;;;;;16.15;4.97;;;5.70;99.90;;;;;;5063769;28;20529;-70
2023/04/30 01:59:09;;;;;;;14.52;4.78;;;5.60;99.90;;;;;;5062955;28;20036;-70
2023/04/30 02:01:34;;;;;;;19.55;5.95;;;5.70;99.90;;;;;;5063893;28;20048;-69
2023/04/30 02:04:00;;;;;;;14.82;5.88;;;5.60;99.90;;;;;;5064249;28;20466;-69
2023/04/30 02:06:27;;;;;;;22.10;6.28;;;5.50;99.90;;;;;;5064094;28;20036;-70
2023/04/30 02:09:01;;;;;;;14.13;5.30;;;5.50;99.90;;;;;;5063548;28;20017;-71
2023/04/30 02:11:28;;;;;;;15.93;5.53;;;5.40;99.90;;;;;;5063851;28;20017;-69
2023/04/30 02:13:53;;;;;;;17.10;5.95;;;5.40;99.90;;;;;;5064130;28;20116;-69
2023/04/30 02:16:19;;;;;;;11.95;4.97;;;5.40;99.90;;;;;;5062885;28;20033;-71
2023/04/30 02:18:45;;;;;;;14.07;5.80;;;5.40;99.90;;;;;;5063377;28;20045;-70
2023/04/30 02:21:11;;;;;;;17.58;5.47;;;5.40;99.90;;;;;;5063333;28;20355;-70
2023/04/30 02:23:36;;;;;;;17.00;5.80;;;5.40;99.90;;;;;;5063720;28;20029;-70
2023/04/30 02:26:02;;;;;;;19.65;5.88;;;5.40;99.90;;;;;;5063914;28;20044;-69
2023/04/30 02:28:28;;;;;;;20.83;6.00;;;5.40;99.90;;;;;;5062195;28;20029;-70
2023/04/30 02:30:53;;;;;;;15.90;6.22;;;5.30;99.90;;;;;;5061695;28;20025;-70
2023/04/30 02:33:19;;;;;;;19.08;5.80;;;5.30;99.90;;;;;;5064015;28;20426;-71
2023/04/30 02:35:46;;;;;;;17.02;6.60;;;5.30;99.90;;;;;;5063152;28;20099;-69
2023/04/30 02:38:11;;;;;;;18.17;6.63;;;5.20;99.90;;;;;;5063607;28;20040;-69
2023/04/30 02:40:37;;;;;;;18.63;6.55;;;5.20;99.90;;;;;;5062737;28;20039;-68
2023/04/30 02:43:03;;;;;;;21.83;6.40;;;5.20;99.90;;;;;;5062449;28;20028;-69
2023/04/30 06:12:20;;;;;;;14.63;3.83;;;7.20;99.90;;;;;;4870460;23;20081;-69
2023/04/30 06:14:46;;;;;;;12.98;4.00;;;7.30;99.90;;;;;;4976374;28;20042;-68
2023/04/30 06:17:12;;;;;;;19.42;4.05;;;7.30;99.90;;;;;;4987079;28;20030;-68
2023/04/30 06:19:38;;;;;;;14.80;3.90;;;7.40;99.90;;;;;;4985484;28;20503;-68
2023/04/30 06:22:04;;;;;;;15.77;3.53;;;7.40;99.90;;;;;;4967968;28;20039;-70
2023/04/30 06:24:29;;;;;;;19.48;4.50;;;7.50;99.90;;;;;;4981011;28;20456;-69
2023/04/30 06:26:55;;;;;;;14.82;3.90;;;7.50;99.90;;;;;;4983669;28;20050;-70
2023/04/30 06:29:23;;;;;;;15.88;4.00;;;7.60;99.90;;;;;;4967930;28;20036;-68
2023/04/30 06:31:51;;;;;;;9.73;3.65;;;7.70;99.90;;;;;;4968928;28;20030;-71
2023/04/30 06:34:17;;;;;;;18.08;4.20;;;7.70;99.90;;;;;;4967951;29;20027;-68
2023/04/30 06:36:43;;;;;;;12.05;3.47;;;7.80;99.90;;;;;;4950629;29;20066;-68
2023/04/30 06:39:09;;;;;;;8.98;3.35;;;7.90;99.90;;;;;;4958465;28;20039;-69
2023/04/30 06:41:34;;;;;;;17.15;4.18;;;8.00;99.90;;;;;;4986700;28;20027;-68
2023/04/30 06:44:00;;;;;;;10.07;3.38;;;8.10;99.90;;;;;;4981206;28;20110;-68
2023/04/30 06:46:25;;;;;;;21.23;4.25;;;8.10;99.90;;;;;;4950395;29;20024;-68
2023/04/30 06:48:51;;;;;;;17.35;4.18;;;8.20;99.90;;;;;;4970516;28;20552;-69
2023/04/30 06:51:16;;;;;;;12.90;3.65;;;8.30;99.90;;;;;;4983848;28;20122;-69
2023/04/30 06:53:42;;;;;;;13.90;4.18;;;8.40;99.90;;;;;;4959586;28;20039;-68
2023/04/30 06:56:07;;;;;;;11.68;3.67;;;8.40;99.90;;;;;;4970171;28;20058;-68
2023/04/30 06:58:33;;;;;;;17.67;4.82;;;8.50;99.90;;;;;;4969645;28;20042;-68
2023/04/30 07:00:58;;;;;;;11.57;3.83;;;8.60;99.90;;;;;;4969183;28;20031;-69
2023/04/30 07:03:24;;;;;;;12.35;3.72;;;8.70;99.90;;;;;;4965453;28;20035;-70
2023/04/30 07:05:52;;;;;;;18.15;4.03;;;8.80;99.90;;;;;;4986816;28;20034;-70
2023/04/30 07:08:18;;;;;;;17.75;4.57;;;8.90;99.90;;;;;;4977087;28;20045;-70
2023/04/30 07:10:44;;;;;;;13.40;3.83;;;9.00;99.90;;;;;;4975517;28;20102;-69
2023/04/30 07:13:09;;;;;;;6.57;3.15;;;9.10;99.90;;;;;;4983689;28;20050;-68
2023/04/30 07:15:35;;;;;;;17.48;3.90;;;9.20;99.90;;;;;;4985747;28;20475;-68
2023/04/30 07:18:02;;;;;;;10.82;3.13;;;9.30;99.90;;;;;;4986082;28;20054;-69
2023/04/30 07:20:29;;;;;;;11.70;3.58;;;9.40;99.90;;;;;;4985642;28;20027;-69
2023/04/30 07:22:54;;;;;;;14.38;3.55;;;9.50;99.90;;;;;;4986360;28;20031;-69
2023/04/30 07:25:20;;;;;;;9.50;3.15;;;9.40;99.90;;;;;;4986442;28;20027;-69
2023/04/30 07:27:45;;;;;;;14.95;3.88;;;9.30;99.90;;;;;;4984777;28;20406;-68
2023/04/30 07:30:11;;;;;;;14.68;3.38;;;9.20;99.90;;;;;;4985775;28;20026;-68
2023/04/30 07:32:40;;;;;;;13.95;3.42;;;9.20;99.90;;;;;;4971836;28;20026;-68
2023/04/30 07:35:06;;;;;;;9.75;3.13;;;9.10;99.90;;;;;;4973016;28;20031;-68
2023/04/30 07:37:31;;;;;;;13.63;3.60;;;9.10;99.90;;;;;;4978318;28;20090;-68
2023/04/30 07:39:57;;;;;;;16.55;3.70;;;9.10;99.90;;;;;;4973401;28;20039;-68
2023/04/30 07:42:25;;;;;;;16.10;3.20;;;9.20;99.90;;;;;;4975336;28;20027;-69
2023/04/30 07:44:51;;;;;;;11.75;3.70;;;9.30;99.90;;;;;;4975088;28;20041;-69
2023/04/30 07:47:18;;;;;;;15.85;3.65;;;9.40;99.90;;;;;;4977841;28;20059;-68
2023/04/30 07:49:46;;;;;;;11.63;3.78;;;9.30;99.90;;;;;;4981272;28;20486;-68
2023/04/30 07:52:12;;;;;;;13.95;3.85;;;9.30;99.90;;;;;;4985674;28;20106;-70
2023/04/30 07:54:38;;;;;;;11.88;3.22;;;9.50;99.90;;;;;;4984775;28;20026;-68
2023/04/30 07:57:05;;;;;;;8.82;3.70;;;9.70;99.90;;;;;;4981710;28;20023;-68
2023/04/30 07:59:31;;;;;;;18.95;3.72;;;9.80;99.90;;;;;;4975923;28;20043;-69
2023/04/30 08:01:57;;;;;;;18.35;3.70;;;10.10;99.90;;;;;;4953560;28;20063;-69
2023/04/30 08:04:23;;;;;;;16.98;3.80;;;10.20;99.90;;;;;;4982562;28;20031;-69
2023/04/30 08:06:50;;;;;;;13.85;3.72;;;10.30;99.90;;;;;;4984012;28;20027;-69
2023/04/30 08:09:16;;;;;;;14.65;3.58;;;10.40;99.90;;;;;;4984950;28;20027;-68
2023/04/30 08:11:41;;;;;;;13.10;3.50;;;10.60;99.90;;;;;;4961550;29;20047;-69
2023/04/30 08:14:07;;;;;;;11.88;3.47;;;10.60;99.90;;;;;;4962573;28;20050;-69
2023/04/30 08:16:32;;;;;;;11.98;3.28;;;10.50;99.90;;;;;;4965678;28;20023;-69
2023/04/30 08:18:59;;;;;;;12.63;3.28;;;10.40;99.90;;;;;;4959928;28;20030;-71
2023/04/30 08:21:27;;;;;;;16.73;3.47;;;10.40;99.90;;;;;;4957293;29;20023;-69
2023/04/30 08:23:54;;;;;;;13.30;3.20;;;10.20;99.90;;;;;;4961928;28;20054;-71
2023/04/30 08:26:21;;;;;;;11.43;3.50;;;10.10;99.90;;;;;;4955459;29;20087;-69
2023/04/30 08:28:46;;;;;;;16.00;3.97;;;10.00;99.90;;;;;;4966402;28;20040;-69
2023/04/30 08:31:12;;;;;;;8.75;3.17;;;10.00;99.90;;;;;;4956557;28;20039;-68
2023/04/30 08:33:38;;;;;;;16.00;3.85;;;10.10;99.90;;;;;;4962170;29;20035;-69
2023/04/30 08:36:03;;;;;;;14.50;3.88;;;10.20;99.90;;;;;;4965142;29;20039;-69
2023/04/30 08:38:29;;;;;;;12.77;3.55;;;10.40;99.90;;;;;;4966314;29;20463;-69
2023/04/30 08:41:11;;;;;;;13.10;3.63;;;10.60;99.90;;;;;;4964462;28;20027;-71
2023/04/30 08:43:38;;;;;;;8.63;3.92;;;10.90;99.90;;;;;;4953726;28;20119;-68
2023/04/30 08:46:04;;;;;;;12.77;3.63;;;11.30;99.90;;;;;;4964579;29;20031;-67
2023/04/30 08:48:30;;;;;;;13.55;3.58;;;11.60;99.90;;;;;;4965676;28;20047;-69
2023/04/30 08:51:03;;;;;;;16.05;3.95;;;11.60;99.90;;;;;;4965719;28;20034;-70
2023/04/30 08:53:33;;;;;;;10.15;3.70;;;11.70;99.90;;;;;;4969373;28;20435;-68
2023/04/30 08:55:59;;;;;;;11.10;3.22;;;11.90;99.90;;;;;;4968087;28;20034;-68
2023/04/30 08:58:24;;;;;;;14.38;3.10;;;11.90;99.90;;;;;;4961499;28;20035;-69
2023/04/30 09:00:51;;;;;;;15.65;3.85;;;11.90;99.90;;;;;;4961963;28;20031;-68
2023/04/30 09:03:16;;;;;;;10.23;3.30;;;12.00;99.90;;;;;;4968044;29;20039;-68
2023/04/30 09:05:42;;;;;;;12.75;3.33;;;12.20;99.90;;;;;;4969326;29;20037;-69
2023/04/30 09:08:08;;;;;;;9.43;3.45;;;12.30;99.90;;;;;;4969193;28;20479;-68
2023/04/30 09:10:34;;;;;;;15.88;3.20;;;12.60;99.90;;;;;;4969259;28;20033;-68
2023/04/30 09:13:01;;;;;;;10.07;2.88;;;12.80;99.90;;;;;;4982348;28;20130;-69
2023/04/30 09:15:27;;;;;;;13.45;3.75;;;12.90;99.90;;;;;;4985211;28;20027;-69
2023/04/30 09:18:10;;;;;;;13.00;3.38;;;13.10;99.90;;;;;;4988192;28;20027;-68
2023/04/30 09:20:36;;;;;;;8.93;3.00;;;13.20;99.90;;;;;;4982474;28;20037;-68
2023/04/30 09:23:07;;;;;;;10.88;3.50;;;13.40;99.90;;;;;;4985022;28;20035;-70
2023/04/30 09:25:40;;;;;;;9.73;3.30;;;13.50;99.90;;;;;;4979142;28;20041;-68
2023/04/30 09:28:10;;;;;;;9.48;3.00;;;13.60;99.90;;;;;;4980862;28;20039;-68
2023/04/30 09:30:36;;;;;;;11.65;3.58;;;13.70;99.90;;;;;;4980256;28;20027;-68
2023/04/30 09:33:02;;;;;;;7.30;2.78;;;13.60;99.90;;;;;;4973788;28;20026;-68
2023/04/30 09:35:38;;;;;;;14.10;3.55;;;13.70;99.90;;;;;;4983431;28;20111;-68
2023/04/30 09:38:05;;;;;;;12.90;3.38;;;13.80;99.90;;;;;;4988000;28;20026;-68
2023/04/30 09:40:41;;;;;;;11.40;3.20;;;14.00;99.90;;;;;;4962370;28;20035;-69
2023/04/30 09:43:07;;;;;;;10.77;3.78;;;14.00;99.90;;;;;;4975037;28;20031;-69
2023/04/30 09:45:48;;;;;;;12.32;3.35;;;14.20;99.90;;;;;;4980235;28;20090;-70
2023/04/30 09:48:18;;;;;;;10.38;3.20;;;14.30;99.90;;;;;;4970346;28;20047;-68
2023/04/30 09:50:45;;;;;;;10.38;3.58;;;14.40;99.90;;;;;;4986659;28;20034;-69
2023/04/30 09:53:16;;;;;;;12.57;3.55;;;14.40;99.90;;;;;;4982702;28;20052;-68
2023/04/30 09:55:44;;;;;;;12.80;3.65;;;14.60;99.90;;;;;;4962931;28;20086;-68
2023/04/30 09:58:11;;;;;;;10.38;3.13;;;14.60;99.90;;;;;;4985663;28;20029;-69
2023/04/30 10:00:41;;;;;;;10.68;3.03;;;14.40;99.90;;;;;;4987308;28;20074;-69
2023/04/30 10:03:08;;;;;;;12.27;3.42;;;14.30;99.90;;;;;;4986549;28;20027;-67
2023/04/30 10:05:41;;;;;;;11.65;3.67;;;14.40;99.90;;;;;;4983177;28;20042;-69
2023/04/30 10:08:29;;;;;;;9.15;3.08;;;14.40;99.90;;;;;;4983386;28;20042;-70
2023/04/30 10:11:03;;;;;;;7.47;3.33;;;14.50;99.90;;;;;;4977108;28;20031;-69
2023/04/30 10:13:42;;;;;;;10.48;3.10;;;14.60;99.90;;;;;;4980944;28;20062;-69
2023/04/30 10:16:26;;;;;;;13.50;3.33;;;14.60;99.90;;;;;;4981686;28;20863;-69
2023/04/30 10:18:53;;;;;;;14.93;3.70;;;14.60;99.90;;;;;;4985924;28;20030;-70
2023/04/30 10:21:23;;;;;;;16.23;3.55;;;14.60;99.90;;;;;;4985439;28;20518;-69
2023/04/30 10:23:51;;;;;;;13.32;3.30;;;14.60;99.90;;;;;;4986039;28;20062;-70
2023/04/30 10:26:17;;;;;;;9.70;3.22;;;14.80;99.90;;;;;;4981649;28;20050;-67
2023/04/30 10:28:43;;;;;;;11.38;3.30;;;15.00;99.90;;;;;;4985708;28;20047;-68
2023/04/30 10:31:10;;;;;;;10.93;2.88;;;15.20;99.90;;;;;;4986843;28;20037;-69
2023/04/30 10:34:02;;;;;;;13.18;3.80;;;15.20;99.90;;;;;;4986427;28;20056;-69
2023/04/30 10:36:37;;;;;;;8.02;3.00;;;15.20;99.90;;;;;;4959018;28;20035;-68
2023/04/30 10:39:04;;;;;;;12.35;3.08;;;15.20;99.90;;;;;;4985243;28;20491;-68
2023/04/30 10:41:30;;;;;;;11.98;3.38;;;15.20;99.90;;;;;;4985094;28;20030;-69
2023/04/30 10:44:00;;;;;;;10.80;3.47;;;15.30;99.90;;;;;;4965040;28;20118;-68
2023/04/30 10:46:27;;;;;;;15.93;3.70;;;15.40;99.90;;;;;;4965216;28;20031;-68
2023/04/30 10:48:56;;;;;;;10.27;3.00;;;15.60;99.90;;;;;;4982029;28;20035;-69
2023/04/30 10:51:22;;;;;;;10.07;3.40;;;15.80;99.90;;;;;;4981913;28;20038;-68
2023/04/30 10:53:53;;;;;;;13.88;3.78;;;16.00;99.90;;;;;;4985971;28;20026;-69
2023/04/30 10:56:32;;;;;;;10.52;3.55;;;16.30;99.90;;;;;;4983659;28;20350;-70
2023/04/30 10:59:01;;;;;;;11.48;3.35;;;16.40;99.90;;;;;;4966360;28;20372;-68
2023/04/30 11:01:27;;;;;;;9.38;3.30;;;16.60;99.90;;;;;;4975660;28;20034;-69
2023/04/30 11:04:10;;;;;;;10.80;3.03;;;16.50;99.90;;;;;;4959809;28;20090;-69
2023/04/30 11:06:52;;;;;;;10.82;3.40;;;16.20;99.90;;;;;;4972362;28;20042;-69
2023/04/30 11:09:23;;;;;;;10.50;3.50;;;15.70;99.90;;;;;;4979923;28;20179;-70
2023/04/30 11:12:02;;;;;;;10.45;3.83;;;15.40;99.90;;;;;;4952670;29;20062;-69
2023/04/30 11:14:31;;;;;;;11.38;3.05;;;15.40;99.90;;;;;;4959520;28;20040;-70
2023/04/30 11:16:59;;;;;;;10.10;3.28;;;15.60;99.90;;;;;;4960664;28;20035;-68
2023/04/30 11:19:27;;;;;;;7.93;3.00;;;15.90;99.90;;;;;;4959844;28;20032;-69
2023/04/30 11:22:02;;;;;;;8.73;3.40;;;15.90;99.90;;;;;;4961367;29;20024;-69
2023/04/30 11:24:54;;;;;;;11.15;4.07;;;15.80;99.90;;;;;;4966803;29;20058;-68
2023/04/30 11:27:25;;;;;;;8.88;3.40;;;15.90;99.90;;;;;;4966802;28;20416;-69
2023/04/30 11:29:52;;;;;;;7.05;3.25;;;16.10;99.90;;;;;;4966004;28;20031;-68
2023/04/30 11:32:22;;;;;;;6.85;3.08;;;16.30;99.90;;;;;;4966453;28;20035;-69
2023/04/30 11:34:49;;;;;;;9.15;3.13;;;16.50;99.90;;;;;;4965931;28;20403;-70
2023/04/30 11:37:28;;;;;;;11.85;3.20;;;16.60;99.90;;;;;;4965694;28;20035;-68
2023/04/30 11:39:54;;;;;;;13.60;3.30;;;16.70;99.90;;;;;;4964186;28;20023;-70
2023/04/30 11:42:20;;;;;;;13.82;3.50;;;16.50;99.90;;;;;;4958694;28;20062;-69
2023/04/30 11:44:46;;;;;;;10.60;3.13;;;16.70;99.90;;;;;;4964605;28;20031;-69
2023/04/30 11:47:13;;;;;;;10.63;3.25;;;16.80;99.90;;;;;;4966120;28;20095;-67
2023/04/30 11:49:39;;;;;;;11.98;4.03;;;16.80;99.90;;;;;;4964441;28;20031;-69
2023/04/30 11:52:05;;;;;;;7.47;3.08;;;16.50;99.90;;;;;;4961186;28;20102;-68
2023/04/30 11:54:31;;;;;;;12.13;3.30;;;16.50;99.90;;;;;;4962013;28;20035;-68
2023/04/30 11:57:02;;;;;;;11.15;3.25;;;16.70;99.90;;;;;;4953942;29;20480;-69
2023/04/30 11:59:30;;;;;;;6.88;3.13;;;17.00;99.90;;;;;;4955596;28;20030;-71
2023/04/30 12:01:56;;;;;;;10.23;3.38;;;17.30;99.90;;;;;;4956623;29;20036;-67
2023/04/30 12:04:21;;;;;;;10.30;3.40;;;17.50;99.90;;;;;;4957865;28;20415;-69
2023/04/30 12:06:47;;;;;;;8.75;2.88;;;17.70;99.90;;;;;;4960886;29;20027;-68
2023/04/30 12:09:13;;;;;;;9.75;3.42;;;18.00;99.90;;;;;;4957114;29;20087;-68
2023/04/30 12:11:39;;;;;;;9.52;2.80;;;18.00;99.90;;;;;;4968749;28;20067;-69
2023/04/30 12:14:09;;;;;;;8.35;3.75;;;18.30;99.90;;;;;;4983837;28;20553;-68
2023/04/30 12:16:43;;;;;;;9.73;2.97;;;18.50;99.90;;;;;;4984863;28;20031;-68
2023/04/30 12:19:08;;;;;;;9.32;2.90;;;18.30;99.90;;;;;;4985547;28;20159;-68
2023/04/30 12:21:35;;;;;;;10.90;2.75;;;18.00;99.90;;;;;;4968089;28;20038;-68
2023/04/30 12:24:01;;;;;;;8.50;2.80;;;18.10;99.90;;;;;;4985124;28;20031;-69
2023/04/30 12:26:38;;;;;;;8.10;3.15;;;18.00;99.90;;;;;;4984615;28;20034;-68
2023/04/30 12:29:06;;;;;;;10.27;2.88;;;18.10;99.90;;;;;;4962310;28;20054;-69
2023/04/30 12:31:32;;;;;;;9.20;2.97;;;18.40;99.90;;;;;;4983354;28;20083;-67
2023/04/30 12:34:06;;;;;;;9.63;2.70;;;18.70;99.90;;;;;;4966141;28;20023;-69
2023/04/30 12:36:33;;;;;;;8.07;3.13;;;18.90;99.90;;;;;;4983688;28;20086;-68
2023/04/30 12:39:09;;;;;;;9.13;3.38;;;19.00;99.90;;;;;;4983458;28;20102;-67
2023/04/30 12:41:43;;;;;;;8.70;2.92;;;18.90;99.90;;;;;;4972043;28;20031;-69
2023/04/30 12:44:28;;;;;;;9.70;3.38;;;19.00;99.90;;;;;;4979975;28;20083;-68
2023/04/30 12:46:56;;;;;;;9.55;3.10;;;19.10;99.90;;;;;;4984873;28;20030;-69
2023/04/30 12:49:25;;;;;;;9.45;3.00;;;19.20;99.90;;;;;;4967120;28;20037;-70
2023/04/30 12:51:57;;;;;;;8.82;3.17;;;19.30;99.90;;;;;;4983633;28;20023;-69
2023/04/30 12:54:27;;;;;;;9.65;3.03;;;19.60;99.90;;;;;;4956796;28;20365;-68
2023/04/30 12:57:03;;;;;;;9.05;3.28;;;19.90;99.90;;;;;;4972558;28;20034;-69
2023/04/30 12:59:30;;;;;;;9.48;3.13;;;20.00;99.90;;;;;;4975202;28;20098;-68
2023/04/30 13:02:08;;;;;;;7.82;2.80;;;20.30;99.90;;;;;;4984113;28;20025;-69
2023/04/30 13:04:35;;;;;;;7.80;3.00;;;20.40;99.90;;;;;;4981756;28;20054;-69
2023/04/30 13:07:02;;;;;;;9.98;2.92;;;20.70;99.90;;;;;;4983408;28;20027;-69
2023/04/30 13:09:27;;;;;;;9.50;2.90;;;20.80;99.90;;;;;;4984977;28;20030;-69
2023/04/30 13:11:53;;;;;;;7.15;2.58;;;20.90;99.90;;;;;;4984904;28;20047;-69
2023/04/30 13:14:19;;;;;;;5.32;2.45;;;20.90;99.90;;;;;;4984926;28;20043;-70
2023/04/30 13:16:45;;;;;;;7.80;2.63;;;20.90;99.90;;;;;;4982443;28;20022;-69
2023/04/30 13:19:11;;;;;;;10.55;3.08;;;20.70;99.90;;;;;;4971726;28;20526;-68
2023/04/30 13:21:37;;;;;;;10.32;3.30;;;20.20;99.90;;;;;;4975056;28;20027;-68
2023/04/30 13:24:02;;;;;;;8.00;3.28;;;20.10;99.90;;;;;;4979362;28;20082;-68
2023/04/30 13:26:28;;;;;;;10.75;2.83;;;20.00;99.90;;;;;;4979439;28;20042;-68
2023/04/30 13:28:54;;;;;;;11.50;2.75;;;19.90;99.90;;;;;;4973318;28;20345;-69
2023/04/30 13:31:21;;;;;;;7.50;2.47;;;19.60;99.90;;;;;;4965545;28;20038;-68
2023/04/30 13:33:46;;;;;;;8.75;2.97;;;19.40;99.90;;;;;;4950675;28;20031;-67
2023/04/30 13:36:12;;;;;;;8.52;2.97;;;19.60;99.90;;;;;;4972259;28;20030;-68
2023/04/30 13:38:38;;;;;;;12.20;3.10;;;19.80;99.90;;;;;;4979727;28;20046;-67
2023/04/30 13:41:04;;;;;;;8.95;2.88;;;20.20;99.90;;;;;;4979179;28;20086;-66
2023/04/30 13:43:30;;;;;;;6.10;2.70;;;20.50;99.90;;;;;;4980486;28;20030;-68
2023/04/30 13:45:57;;;;;;;72.82;54.85;;;20.70;99.90;;;;;;4960323;28;20027;-69
2023/04/30 13:48:23;;;;;;;12.50;7.30;;;20.70;99.90;;;;;;4974779;28;20035;-68
2023/04/30 13:50:50;;;;;;;10.40;4.30;;;20.90;99.90;;;;;;4972233;28;20027;-69
2023/04/30 13:53:16;;;;;;;9.75;2.95;;;21.10;99.90;;;;;;4982474;28;20019;-67
2023/04/30 13:55:42;;;;;;;6.68;2.70;;;21.60;99.90;;;;;;4976871;28;20065;-68
2023/04/30 13:58:07;;;;;;;7.68;2.78;;;21.80;99.90;;;;;;4983579;28;20096;-67
2023/04/30 14:00:33;;;;;;;7.00;2.42;;;21.90;99.90;;;;;;4984826;28;20066;-68
2023/04/30 14:02:59;;;;;;;8.85;2.65;;;22.10;99.90;;;;;;4986822;28;20027;-68
2023/04/30 14:05:24;;;;;;;7.00;2.47;;;22.20;99.90;;;;;;4975699;28;20030;-69
2023/04/30 14:07:50;;;;;;;8.73;2.85;;;22.20;99.90;;;;;;4987644;28;20038;-68
2023/04/30 14:10:15;;;;;;;15.77;3.05;;;22.20;99.90;;;;;;4977521;28;20035;-68
2023/04/30 14:12:41;;;;;;;8.00;2.20;;;22.10;99.90;;;;;;4983931;28;20050;-69
2023/04/30 14:15:07;;;;;;;8.15;2.70;;;22.00;99.90;;;;;;4987166;28;20035;-68
2023/04/30 14:17:33;;;;;;;7.50;2.40;;;21.70;99.90;;;;;;4986554;28;20105;-68
2023/04/30 14:19:59;;;;;;;5.78;2.50;;;21.60;99.90;;;;;;4969868;28;20026;-68
2023/04/30 14:22:24;;;;;;;5.95;2.40;;;21.70;99.90;;;;;;4969032;28;20042;-69
2023/04/30 14:24:52;;;;;;;4.45;2.15;;;21.80;99.90;;;;;;4976432;28;20026;-70
2023/04/30 14:27:17;;;;;;;5.25;2.42;;;22.00;99.90;;;;;;4987895;28;20034;-68
2023/04/30 14:29:43;;;;;;;7.40;2.10;;;22.20;99.90;;;;;;4987356;28;20035;-68
2023/04/30 14:32:08;;;;;;;7.55;3.80;;;22.30;99.90;;;;;;4987458;28;20035;-67
2023/04/30 14:34:34;;;;;;;6.18;2.40;;;22.40;99.90;;;;;;4986258;28;20023;-67
2023/04/30 14:37:02;;;;;;;8.55;2.40;;;22.40;99.90;;;;;;4984506;28;20178;-69
2023/04/30 14:39:27;;;;;;;8.65;2.45;;;22.50;99.90;;;;;;4968579;28;20046;-67
2023/04/30 14:41:53;;;;;;;6.38;2.35;;;22.30;99.90;;;;;;4987289;28;20063;-68
2023/04/30 14:44:20;;;;;;;10.10;2.70;;;22.10;99.90;;;;;;4987025;28;20035;-68
2023/04/30 14:46:46;;;;;;;7.88;2.05;;;22.00;99.90;;;;;;4980270;28;20035;-68
2023/04/30 14:49:11;;;;;;;31.58;25.23;;;22.00;99.90;;;;;;4985790;28;20125;-68
2023/04/30 14:51:37;;;;;;;13.23;5.97;;;21.90;99.90;;;;;;4986786;28;20027;-68
2023/04/30 14:54:03;;;;;;;6.80;2.90;;;21.90;99.90;;;;;;4987159;28;20038;-67
2023/04/30 14:56:28;;;;;;;3.95;1.83;;;21.90;99.90;;;;;;4984527;28;20026;-68
2023/04/30 14:58:54;;;;;;;6.35;2.80;;;22.00;99.90;;;;;;4987055;28;20126;-68
2023/04/30 15:01:19;;;;;;;8.18;2.20;;;22.10;99.90;;;;;;4969847;28;20397;-68
2023/04/30 15:03:45;;;;;;;9.98;2.42;;;22.30;99.90;;;;;;4986743;28;20037;-67
2023/04/30 15:06:11;;;;;;;6.40;2.42;;;22.40;99.90;;;;;;4986982;28;20062;-67
2023/04/30 15:08:37;;;;;;;9.10;2.40;;;22.60;99.90;;;;;;4969527;28;20026;-68
2023/04/30 15:11:05;;;;;;;11.65;6.07;;;22.80;99.90;;;;;;4966225;28;20050;-67
2023/04/30 15:13:31;;;;;;;4.75;2.03;;;22.90;99.90;;;;;;4958037;28;20122;-68
2023/04/30 15:15:57;;;;;;;7.07;1.85;;;22.80;99.90;;;;;;4972324;28;20023;-68
2023/04/30 15:18:23;;;;;;;5.05;1.83;;;22.90;99.90;;;;;;4952685;28;20038;-69
2023/04/30 15:20:49;;;;;;;7.70;2.50;;;23.00;99.90;;;;;;4990386;28;20031;-68
2023/04/30 15:23:15;;;;;;;3.45;1.77;;;22.90;99.90;;;;;;4995497;28;20050;-68
2023/04/30 15:25:42;;;;;;;5.10;2.10;;;23.00;99.90;;;;;;4965294;29;20035;-69
2023/04/30 15:28:08;;;;;;;7.70;2.28;;;23.10;99.90;;;;;;4975943;28;20035;-68
2023/04/30 15:30:34;;;;;;;6.45;2.00;;;23.00;99.90;;;;;;4972886;28;20042;-69
2023/04/30 15:32:59;;;;;;;5.20;1.83;;;23.10;99.90;;;;;;4982570;28;20031;-70
2023/04/30 15:35:26;;;;;;;3.83;2.00;;;23.00;99.90;;;;;;4985188;28;20027;-69
2023/04/30 15:37:52;;;;;;;5.88;1.90;;;23.20;99.90;;;;;;4975574;28;20070;-67
2023/04/30 15:40:17;;;;;;;7.15;2.28;;;23.20;99.90;;;;;;4970920;28;20066;-69
2023/04/30 15:42:43;;;;;;;4.10;1.98;;;23.30;99.90;;;;;;4975893;28;20042;-68
2023/04/30 15:45:09;;;;;;;4.10;1.83;;;23.10;99.90;;;;;;4966081;28;20038;-69
2023/04/30 15:47:36;;;;;;;8.80;2.10;;;22.90;99.90;;;;;;4967271;28;20083;-68
2023/04/30 15:50:02;;;;;;;8.18;2.10;;;22.80;99.90;;;;;;4972582;28;20029;-67
2023/04/30 15:52:28;;;;;;;7.15;2.00;;;23.00;99.90;;;;;;4982025;28;20047;-69
2023/04/30 15:54:53;;;;;;;8.95;2.70;;;22.90;99.90;;;;;;4985631;28;20037;-69
2023/04/30 15:57:19;;;;;;;7.28;2.72;;;23.00;99.90;;;;;;4977378;28;20043;-69
2023/04/30 15:59:45;;;;;;;6.07;1.98;;;23.30;99.90;;;;;;4973638;28;20039;-69
2023/04/30 16:02:10;;;;;;;5.15;1.83;;;23.50;99.90;;;;;;4978162;28;20036;-69
2023/04/30 16:04:36;;;;;;;4.88;2.00;;;23.40;99.90;;;;;;4967635;28;20037;-68
2023/04/30 16:07:02;;;;;;;6.97;2.10;;;23.30;99.90;;;;;;4968136;28;20039;-69
2023/04/30 16:09:28;;;;;;;5.57;1.80;;;23.30;99.90;;;;;;4968359;28;20057;-68
2023/04/30 16:11:55;;;;;;;3.92;1.65;;;23.10;99.90;;;;;;4985609;28;20062;-68
2023/04/30 16:14:20;;;;;;;4.28;1.67;;;22.90;99.90;;;;;;4984782;28;20348;-70